createdAt,value
2022-09-10T00:00:10.898Z,100028.94
2022-09-10T00:03:13.502Z,100018.28
2022-09-10T00:06:18.720Z,100020.28
2022-09-10T00:09:21.252Z,100015.81
2022-09-10T00:12:24.118Z,100016.50
2022-09-10T00:15:26.544Z,100009.25
2022-09-10T00:18:29.550Z,100018.75
2022-09-10T00:21:32.104Z,100021.97
2022-09-10T00:24:34.889Z,100012.94
2022-09-10T00:27:37.593Z,100011.38
2022-09-10T00:30:46.605Z,100008.09
2022-09-10T00:33:50.423Z,100015.97
2022-09-10T00:36:53.253Z,100011.56
2022-09-10T00:39:56.496Z,100010.97
2022-09-10T00:42:59.831Z,100003.50
2022-09-10T00:46:02.577Z,100000.66
2022-09-10T00:49:13.367Z,100000.09
2022-09-10T00:52:17.058Z,99988.53
2022-09-10T00:55:21.278Z,99990.41
2022-09-10T00:58:26.475Z,100001.97
2022-09-10T01:01:29.272Z,99998.25
2022-09-10T01:04:32.527Z,99989.72
2022-09-10T01:07:36.214Z,99982.56
2022-09-10T01:10:49.462Z,99968.91
2022-09-10T01:14:10.688Z,99971.47
2022-09-10T01:17:28.155Z,99974.81
2022-09-10T01:21:10.587Z,99980.69
2022-09-10T01:24:34.558Z,99975.19
2022-09-10T01:27:44.839Z,99966.56
2022-09-10T01:30:51.540Z,99957.81
2022-09-10T01:34:05.747Z,99960.12
2022-09-10T01:37:18.205Z,99958.78
2022-09-10T01:40:30.068Z,99950.44
2022-09-10T01:43:34.470Z,99949.03
2022-09-10T01:47:03.436Z,99941.28
2022-09-10T01:50:39.336Z,99941.16
2022-09-10T01:53:51.132Z,99935.66
2022-09-10T01:57:23.378Z,99919.69
2022-09-10T02:00:27.174Z,99936.91
2022-09-10T02:03:31.268Z,99943.91
2022-09-10T02:06:39.264Z,99936.47
2022-09-10T02:09:42.490Z,99925.63
2022-09-10T02:12:46.012Z,99911.13
2022-09-10T02:15:51.956Z,99917.25
2022-09-10T02:18:56.309Z,99906.22
2022-09-10T02:22:00.991Z,99920.25
2022-09-10T02:25:05.041Z,99917.91
2022-09-10T02:28:08.349Z,99921.72
2022-09-10T02:31:11.517Z,99921.34
2022-09-10T02:34:15.979Z,99924.53
2022-09-10T02:37:21.001Z,99931.75
2022-09-10T02:40:24.387Z,99928.09
2022-09-10T02:43:28.347Z,99918.19
2022-09-10T02:46:32.247Z,99897.03
2022-09-10T02:49:35.007Z,99900.91
2022-09-10T02:52:37.761Z,99902.00
2022-09-10T02:55:46.245Z,99896.81
2022-09-10T02:58:50.031Z,99900.09
2022-09-10T03:01:54.544Z,99915.19
2022-09-10T03:04:58.738Z,99915.22
2022-09-10T03:08:01.685Z,99916.87
2022-09-10T03:11:05.846Z,99914.69
2022-09-10T03:14:13.105Z,99921.91
2022-09-10T03:17:16.308Z,99930.16
2022-09-10T03:20:21.210Z,99922.78
2022-09-10T03:23:23.796Z,99924.03
2022-09-10T03:26:27.839Z,99913.69
2022-09-10T03:29:30.286Z,99917.69
2022-09-10T03:32:34.117Z,99921.41
2022-09-10T03:35:36.737Z,99923.91
2022-09-10T03:38:40.702Z,99926.19
2022-09-10T03:41:43.325Z,99926.63
2022-09-10T03:44:46.152Z,99927.88
2022-09-10T03:47:48.620Z,99927.66
2022-09-10T03:50:52.935Z,99920.66
2022-09-10T03:53:55.693Z,99920.00
2022-09-10T03:57:02.577Z,99924.19
2022-09-10T04:00:07.376Z,99922.78
2022-09-10T04:03:17.377Z,99925.69
2022-09-10T04:06:20.209Z,99916.00
2022-09-10T04:09:22.876Z,99925.25
2022-09-10T04:12:27.047Z,99922.69
2022-09-10T04:15:30.225Z,99909.94
2022-09-10T04:18:34.506Z,99919.09
2022-09-10T04:21:37.911Z,99918.84
2022-09-10T04:24:40.829Z,99926.03
2022-09-10T04:27:43.436Z,99940.22
2022-09-10T04:30:47.113Z,99935.16
2022-09-10T04:33:50.012Z,99923.13
2022-09-10T04:36:53.687Z,99928.34
2022-09-10T04:39:56.950Z,99935.34
2022-09-10T04:42:59.937Z,99948.31
2022-09-10T04:46:02.621Z,99947.91
2022-09-10T04:49:06.846Z,99957.59
2022-09-10T04:52:13.210Z,99950.00
2022-09-10T04:55:16.176Z,99952.63
2022-09-10T04:58:19.405Z,99956.50
2022-09-10T05:01:22.399Z,99944.38
2022-09-10T05:04:26.264Z,99936.53
2022-09-10T05:07:31.039Z,99948.47
2022-09-10T05:10:36.085Z,99948.88
2022-09-10T05:13:41.631Z,99952.56
2022-09-10T05:16:46.388Z,99938.97
2022-09-10T05:19:49.270Z,99943.13
2022-09-10T05:22:51.974Z,99938.25
2022-09-10T05:25:55.107Z,99941.75
2022-09-10T05:28:59.803Z,99931.00
2022-09-10T05:32:03.254Z,99937.34
2022-09-10T05:35:09.563Z,99942.91
2022-09-10T05:38:12.907Z,99946.78
2022-09-10T05:41:15.463Z,99954.84
2022-09-10T05:44:19.156Z,99955.75
2022-09-10T05:47:21.930Z,99951.59
2022-09-10T05:50:25.343Z,99961.63
2022-09-10T05:53:28.148Z,99952.59
2022-09-10T05:56:31.720Z,99971.09
2022-09-10T05:59:34.586Z,99968.03
2022-09-10T06:02:37.804Z,99959.84
2022-09-10T06:05:41.167Z,99961.59
2022-09-10T06:08:43.708Z,99964.44
2022-09-10T06:11:50.762Z,99963.34
2022-09-10T06:14:53.474Z,99959.03
2022-09-10T06:17:57.614Z,99967.00
2022-09-10T06:21:15.838Z,99961.31
2022-09-10T06:24:22.892Z,99957.69
2022-09-10T06:27:27.478Z,99951.53
2022-09-10T06:30:30.403Z,99955.03
2022-09-10T06:33:33.605Z,99950.84
2022-09-10T06:36:37.007Z,99943.03
2022-09-10T06:39:39.753Z,99954.50
2022-09-10T06:42:43.048Z,99948.66
2022-09-10T06:45:49.463Z,99952.12
2022-09-10T06:48:53.028Z,99943.53
2022-09-10T06:51:56.702Z,99952.53
2022-09-10T06:55:00.053Z,99952.63
2022-09-10T06:58:04.849Z,99962.53
2022-09-10T07:01:14.063Z,99972.06
2022-09-10T07:04:17.155Z,99969.59
2022-09-10T07:07:20.202Z,99973.66
2022-09-10T07:10:23.096Z,99982.22
2022-09-10T07:13:27.429Z,99994.41
2022-09-10T07:16:30.575Z,99977.59
2022-09-10T07:19:36.239Z,99979.25
2022-09-10T07:22:39.888Z,99978.34
2022-09-10T07:25:43.193Z,99997.44
2022-09-10T07:28:46.449Z,99980.66
2022-09-10T07:31:50.256Z,99993.53
2022-09-10T07:34:55.885Z,99994.88
2022-09-10T07:38:00.237Z,99993.19
2022-09-10T07:41:03.697Z,99990.56
2022-09-10T07:44:07.014Z,100002.53
2022-09-10T07:47:10.119Z,100003.06
2022-09-10T07:50:13.150Z,100009.66
2022-09-10T07:53:17.813Z,100010.09
2022-09-10T07:56:23.194Z,100020.37
2022-09-10T07:59:26.652Z,100015.75
2022-09-10T08:02:29.522Z,100017.53
2022-09-10T08:05:32.567Z,100029.28
2022-09-10T08:08:38.668Z,100030.09
2022-09-10T08:11:42.022Z,100020.31
2022-09-10T08:14:45.351Z,100027.72
2022-09-10T08:17:48.310Z,100035.09
2022-09-10T08:20:55.193Z,100036.94
2022-09-10T08:23:58.550Z,100037.16
2022-09-10T08:27:01.563Z,100034.63
2022-09-10T08:30:04.868Z,100037.47
2022-09-10T08:33:07.550Z,100036.78
2022-09-10T08:36:13.851Z,100039.41
2022-09-10T08:39:16.253Z,100037.34
2022-09-10T08:42:24.186Z,100039.25
2022-09-10T08:45:33.003Z,100030.00
2022-09-10T08:48:39.803Z,100036.16
2022-09-10T08:51:57.367Z,100039.53
2022-09-10T08:55:23.354Z,100033.72
2022-09-10T08:58:57.502Z,100031.19
2022-09-10T09:02:47.188Z,100031.22
2022-09-10T09:05:55.579Z,100028.75
2022-09-10T09:09:01.792Z,100038.81
2022-09-10T09:12:18.919Z,100042.69
2022-09-10T09:15:51.815Z,100049.31
2022-09-10T09:19:23.794Z,100044.41
2022-09-10T09:22:55.906Z,100048.66
2022-09-10T09:26:10.176Z,100045.81
2022-09-10T09:29:20.656Z,100050.56
2022-09-10T09:32:24.057Z,100046.66
2022-09-10T09:35:34.738Z,100043.63
2022-09-10T09:38:45.502Z,100043.94
2022-09-10T09:42:01.494Z,100044.78
2022-09-10T09:45:17.187Z,100039.06
2022-09-10T09:48:22.380Z,100041.56
2022-09-10T09:51:30.687Z,100030.94
2022-09-10T09:55:03.058Z,100022.16
2022-09-10T09:58:19.291Z,100020.28
2022-09-10T10:01:24.610Z,100021.22
2022-09-10T10:04:33.797Z,100008.38
2022-09-10T10:07:36.555Z,100006.25
2022-09-10T10:10:39.898Z,100002.69
2022-09-10T10:13:44.727Z,100001.28
2022-09-10T10:16:49.517Z,100006.63
2022-09-10T10:20:01.249Z,99992.06
2022-09-10T10:23:36.482Z,100001.06
2022-09-10T10:26:39.702Z,100003.63
2022-09-10T10:29:52.098Z,99991.63
2022-09-10T10:32:56.952Z,99993.81
2022-09-10T10:36:18.378Z,99991.47
2022-09-10T10:39:40.842Z,99992.66
2022-09-10T10:43:08.839Z,99986.78
2022-09-10T10:46:21.629Z,99990.53
2022-09-10T10:49:53.830Z,99978.34
2022-09-10T10:53:21.170Z,99977.59
2022-09-10T10:56:36.101Z,99967.66
2022-09-10T10:59:56.164Z,99978.16
2022-09-10T11:03:10.034Z,99981.53
2022-09-10T11:06:20.249Z,99979.81
2022-09-10T11:09:32.338Z,99980.03
2022-09-10T11:12:48.112Z,99978.25
2022-09-10T11:16:04.245Z,99974.38
2022-09-10T11:19:23.668Z,99980.97
2022-09-10T11:22:31.856Z,99981.03
2022-09-10T11:25:40.085Z,99967.62
2022-09-10T11:28:55.606Z,99980.91
2022-09-10T11:32:12.598Z,99960.44
2022-09-10T11:35:22.052Z,99964.53
2022-09-10T11:38:48.290Z,99969.28
2022-09-10T11:41:54.840Z,99963.09
2022-09-10T11:45:04.996Z,99949.63
2022-09-10T11:48:37.169Z,99956.31
2022-09-10T11:51:41.750Z,99964.16
2022-09-10T11:54:47.458Z,99944.88
2022-09-10T11:58:11.586Z,99939.84
2022-09-10T12:01:33.033Z,99956.50
2022-09-10T12:04:54.730Z,99945.25
2022-09-10T12:08:17.562Z,99948.37
2022-09-10T12:11:35.531Z,99954.78
2022-09-10T12:14:39.686Z,99954.75
2022-09-10T12:17:46.327Z,99954.53
2022-09-10T12:20:54.784Z,99953.63
2022-09-10T12:23:59.156Z,99946.41
2022-09-10T12:27:03.697Z,99949.44
2022-09-10T12:30:25.039Z,99949.44
2022-09-10T12:33:27.572Z,99953.00
2022-09-10T12:36:30.170Z,99958.16
2022-09-10T12:39:34.431Z,99952.22
2022-09-10T12:42:37.293Z,99943.41
2022-09-10T12:46:17.411Z,99947.13
2022-09-10T12:49:21.327Z,99943.34
2022-09-10T12:52:35.776Z,99932.25
2022-09-10T12:55:53.795Z,99936.66
2022-09-10T12:59:03.953Z,99930.28
2022-09-10T13:02:33.993Z,99934.47
2022-09-10T13:05:45.479Z,99927.38
2022-09-10T13:08:48.515Z,99917.75
2022-09-10T13:11:56.850Z,99917.41
2022-09-10T13:15:02.643Z,99921.44
2022-09-10T13:18:28.880Z,99909.69
2022-09-10T13:21:31.520Z,99916.06
2022-09-10T13:24:34.445Z,99912.88
2022-09-10T13:27:41.002Z,99916.38
2022-09-10T13:30:43.771Z,99921.62
2022-09-10T13:33:49.440Z,99925.28
2022-09-10T13:37:11.262Z,99915.66
2022-09-10T13:40:33.110Z,99920.69
2022-09-10T13:44:03.228Z,99930.22
2022-09-10T13:47:28.970Z,99919.75
2022-09-10T13:50:57.969Z,99908.78
2022-09-10T13:54:13.579Z,99915.59
2022-09-10T13:57:21.844Z,99910.94
2022-09-10T14:00:33.569Z,99897.56
2022-09-10T14:03:38.317Z,99906.31
2022-09-10T14:06:40.886Z,99902.03
2022-09-10T14:09:47.750Z,99893.87
2022-09-10T14:12:52.603Z,99892.59
2022-09-10T14:15:59.450Z,99894.50
2022-09-10T14:19:07.671Z,99889.50
2022-09-10T14:22:22.694Z,99874.78
2022-09-10T14:25:39.596Z,99881.69
2022-09-10T14:28:54.702Z,99879.13
2022-09-10T14:31:57.365Z,99882.38
2022-09-10T14:35:35.269Z,99875.03
2022-09-10T14:38:40.043Z,99866.91
2022-09-10T14:41:43.953Z,99878.81
2022-09-10T14:44:47.235Z,99875.81
2022-09-10T14:47:52.586Z,99876.09
2022-09-10T14:51:19.394Z,99880.66
2022-09-10T14:54:22.812Z,99882.22
2022-09-10T14:57:27.302Z,99876.25
2022-09-10T15:00:30.475Z,99873.56
2022-09-10T15:03:33.004Z,99878.94
2022-09-10T15:06:37.338Z,99885.13
2022-09-10T15:09:40.995Z,99887.03
2022-09-10T15:12:49.796Z,99881.84
2022-09-10T15:15:53.760Z,99888.38
2022-09-10T15:18:58.229Z,99889.44
2022-09-10T15:22:00.775Z,99898.03
2022-09-10T15:25:10.063Z,99887.16
2022-09-10T15:28:13.490Z,99891.16
2022-09-10T15:31:18.331Z,99899.22
2022-09-10T15:34:20.943Z,99901.31
2022-09-10T15:37:24.314Z,99903.19
2022-09-10T15:40:27.291Z,99907.72
2022-09-10T15:43:30.104Z,99911.28
2022-09-10T15:46:32.724Z,99912.06
2022-09-10T15:49:35.590Z,99907.44
2022-09-10T15:52:38.714Z,99927.16
2022-09-10T15:55:42.444Z,99922.28
2022-09-10T15:58:50.440Z,99927.31
2022-09-10T16:01:53.305Z,99942.09
2022-09-10T16:04:56.051Z,99935.34
2022-09-10T16:07:58.559Z,99940.13
2022-09-10T16:11:07.877Z,99946.56
2022-09-10T16:14:15.929Z,99951.91
2022-09-10T16:17:19.556Z,99952.25
2022-09-10T16:20:22.277Z,99954.31
2022-09-10T16:23:25.003Z,99956.09
2022-09-10T16:26:30.320Z,99964.97
2022-09-10T16:29:33.022Z,99959.25
2022-09-10T16:32:35.748Z,99948.91
2022-09-10T16:35:38.581Z,99954.44
2022-09-10T16:38:43.145Z,99966.00
2022-09-10T16:41:50.777Z,99960.28
2022-09-10T16:44:53.345Z,99967.72
2022-09-10T16:47:58.798Z,99960.84
2022-09-10T16:51:08.958Z,99964.47
2022-09-10T16:54:13.996Z,99968.91
2022-09-10T16:57:16.625Z,99967.19
2022-09-10T17:00:19.457Z,99980.81
2022-09-10T17:03:23.813Z,99978.53
2022-09-10T17:06:27.971Z,99981.78
2022-09-10T17:09:30.449Z,99977.84
2022-09-10T17:12:33.504Z,99989.78
2022-09-10T17:15:36.034Z,99982.41
2022-09-10T17:18:40.496Z,99984.63
2022-09-10T17:21:47.589Z,99988.03
2022-09-10T17:24:56.350Z,99991.94
2022-09-10T17:28:11.212Z,99998.69
2022-09-10T17:31:15.377Z,100002.59
2022-09-10T17:34:21.495Z,100004.38
2022-09-10T17:37:24.792Z,100013.28
2022-09-10T17:40:27.495Z,100005.34
2022-09-10T17:43:35.706Z,100015.19
2022-09-10T17:46:38.447Z,100011.97
2022-09-10T17:49:42.129Z,100015.59
2022-09-10T17:52:45.925Z,100026.75
2022-09-10T17:55:48.812Z,100024.84
2022-09-10T17:58:59.788Z,100027.56
2022-09-10T18:02:03.728Z,100036.44
2022-09-10T18:05:07.784Z,100044.75
2022-09-10T18:08:14.958Z,100046.03
2022-09-10T18:11:24.351Z,100051.03
2022-09-10T18:14:27.645Z,100063.44
2022-09-10T18:17:30.405Z,100065.66
2022-09-10T18:20:32.933Z,100076.28
2022-09-10T18:23:35.674Z,100078.03
2022-09-10T18:26:41.016Z,100082.56
2022-09-10T18:29:44.942Z,100087.22
2022-09-10T18:32:47.911Z,100078.69
2022-09-10T18:35:50.601Z,100079.38
2022-09-10T18:38:53.185Z,100080.84
2022-09-10T18:41:57.163Z,100086.34
2022-09-10T18:44:59.685Z,100087.87
2022-09-10T18:48:02.610Z,100096.25
2022-09-10T18:51:10.740Z,100092.63
2022-09-10T18:54:16.446Z,100087.78
2022-09-10T18:57:18.900Z,100087.25
2022-09-10T19:00:21.618Z,100081.88
2022-09-10T19:03:24.381Z,100088.09
2022-09-10T19:06:33.969Z,100078.44
2022-09-10T19:09:36.421Z,100076.22
2022-09-10T19:12:39.401Z,100063.97
2022-09-10T19:15:41.900Z,100065.41
2022-09-10T19:18:49.880Z,100067.50
2022-09-10T19:21:59.553Z,100060.13
2022-09-10T19:25:03.453Z,100053.69
2022-09-10T19:28:05.895Z,100053.47
2022-09-10T19:31:11.019Z,100056.03
2022-09-10T19:34:16.045Z,100046.09
2022-09-10T19:37:19.830Z,100048.94
2022-09-10T19:40:22.425Z,100053.34
2022-09-10T19:43:25.130Z,100060.94
2022-09-10T19:46:28.565Z,100062.56
2022-09-10T19:49:31.632Z,100077.03
2022-09-10T19:52:34.720Z,100069.44
2022-09-10T19:55:37.712Z,100063.09
2022-09-10T19:58:41.596Z,100069.75
2022-09-10T20:01:46.054Z,100075.19
2022-09-10T20:04:49.031Z,100073.78
2022-09-10T20:07:51.535Z,100084.53
2022-09-10T20:10:55.471Z,100084.37
2022-09-10T20:14:00.951Z,100075.41
2022-09-10T20:17:04.963Z,100069.62
2022-09-10T20:20:07.797Z,100071.22
2022-09-10T20:23:10.760Z,100073.19
2022-09-10T20:26:16.711Z,100080.63
2022-09-10T20:29:20.404Z,100079.72
2022-09-10T20:32:24.011Z,100083.72
2022-09-10T20:35:26.900Z,100085.59
2022-09-10T20:38:29.782Z,100084.19
2022-09-10T20:41:32.503Z,100084.69
2022-09-10T20:44:35.353Z,100088.63
2022-09-10T20:47:43.004Z,100091.37
2022-09-10T20:50:56.446Z,100096.75
2022-09-10T20:54:01.324Z,100092.25
2022-09-10T20:57:04.010Z,100088.13
2022-09-10T21:00:08.111Z,100098.44
2022-09-10T21:03:11.139Z,100086.06
2022-09-10T21:06:16.460Z,100084.03
2022-09-10T21:09:19.023Z,100086.72
2022-09-10T21:12:21.793Z,100082.66
2022-09-10T21:15:24.168Z,100087.69
2022-09-10T21:18:26.849Z,100082.16
2022-09-10T21:21:31.819Z,100087.72
2022-09-10T21:24:34.541Z,100083.81
2022-09-10T21:27:36.994Z,100072.50
2022-09-10T21:30:40.096Z,100071.53
2022-09-10T21:33:43.470Z,100092.34
2022-09-10T21:36:46.404Z,100078.56
2022-09-10T21:39:49.371Z,100066.56
2022-09-10T21:42:52.113Z,100070.34
2022-09-10T21:45:54.651Z,100077.34
2022-09-10T21:48:57.870Z,100074.50
2022-09-10T21:52:00.270Z,100086.69
2022-09-10T21:55:02.997Z,100091.81
2022-09-10T21:58:05.499Z,100096.16
2022-09-10T22:01:13.969Z,100087.94
2022-09-10T22:04:22.085Z,100091.28
2022-09-10T22:07:25.105Z,100092.56
2022-09-10T22:10:29.184Z,100091.53
2022-09-10T22:13:32.134Z,100105.50
2022-09-10T22:16:35.547Z,100111.63
2022-09-10T22:19:37.992Z,100108.94
2022-09-10T22:22:40.617Z,100116.34
2022-09-10T22:25:43.071Z,100121.87
2022-09-10T22:28:46.194Z,100120.91
2022-09-10T22:31:49.707Z,100132.59
2022-09-10T22:34:52.450Z,100130.81
2022-09-10T22:37:57.935Z,100141.69
2022-09-10T22:41:04.964Z,100147.28
2022-09-10T22:44:08.315Z,100141.28
2022-09-10T22:47:11.045Z,100139.03
2022-09-10T22:50:14.020Z,100143.94
2022-09-10T22:53:16.776Z,100149.34
2022-09-10T22:56:26.084Z,100139.50
2022-09-10T22:59:29.041Z,100138.91
2022-09-10T23:02:31.718Z,100138.69
2022-09-10T23:05:35.335Z,100151.84
2022-09-10T23:08:40.247Z,100145.09
2022-09-10T23:11:44.629Z,100150.69
2022-09-10T23:14:47.079Z,100155.19
2022-09-10T23:17:49.789Z,100154.81
2022-09-10T23:20:52.242Z,100150.28
2022-09-10T23:23:58.325Z,100153.19
2022-09-10T23:27:00.840Z,100146.00
2022-09-10T23:30:04.801Z,100154.84
2022-09-10T23:33:07.302Z,100144.34
2022-09-10T23:36:13.215Z,100137.75
2022-09-10T23:39:19.827Z,100139.59
2022-09-10T23:42:22.460Z,100142.66
2022-09-10T23:45:24.866Z,100143.47
2022-09-10T23:48:28.282Z,100138.34
2022-09-10T23:51:32.009Z,100145.09
2022-09-10T23:54:35.197Z,100154.38
2022-09-10T23:57:38.913Z,100143.88
